createdAt,value
2022-08-11T00:01:50.726Z,2.10
2022-08-11T00:04:19.144Z,1.80
2022-08-11T00:06:47.131Z,1.70
2022-08-11T00:09:18.358Z,1.80
2022-08-11T00:11:52.989Z,2.00
2022-08-11T00:14:21.856Z,1.80
2022-08-11T00:17:00.287Z,1.80
2022-08-11T00:20:12.617Z,1.60
2022-08-11T00:22:23.585Z,1.80
2022-08-11T00:24:53.560Z,1.70
2022-08-11T00:27:36.328Z,1.77
2022-08-11T00:30:05.624Z,1.83
2022-08-11T00:32:33.558Z,1.80
2022-08-11T00:35:51.209Z,1.77
2022-08-11T00:37:50.959Z,1.70
2022-08-11T00:40:29.209Z,1.90
2022-08-11T00:43:20.038Z,1.97
2022-08-11T00:46:08.351Z,1.80
2022-08-11T00:48:45.081Z,1.80
2022-08-11T00:52:04.822Z,1.97
2022-08-11T00:54:48.744Z,1.70
2022-08-11T00:57:35.911Z,1.93
2022-08-11T01:00:12.243Z,1.87
2022-08-11T01:02:49.171Z,2.20
2022-08-11T01:05:35.613Z,2.10
2022-08-11T01:08:06.180Z,1.90
2022-08-11T01:10:45.745Z,2.00
2022-08-11T01:13:31.620Z,2.00
2022-08-11T01:16:05.052Z,2.10
2022-08-11T01:18:51.394Z,2.00
2022-08-11T01:21:18.692Z,1.90
2022-08-11T01:23:45.986Z,2.30
2022-08-11T01:26:19.589Z,2.10
2022-08-11T01:29:05.745Z,2.17
2022-08-11T01:31:33.122Z,1.93
2022-08-11T01:34:09.751Z,2.20
2022-08-11T01:36:56.615Z,2.00
2022-08-11T01:39:34.163Z,2.10
2022-08-11T01:42:39.541Z,1.97
2022-08-11T01:45:12.968Z,1.97
2022-08-11T01:47:55.563Z,2.30
2022-08-11T01:50:38.428Z,2.10
2022-08-11T01:53:24.767Z,2.20
2022-08-11T01:55:58.376Z,2.20
2022-08-11T01:58:43.385Z,2.20
2022-08-11T02:01:17.730Z,2.10
2022-08-11T02:04:05.245Z,2.17
2022-08-11T02:06:54.907Z,2.23
2022-08-11T02:09:25.349Z,2.47
2022-08-11T02:11:53.688Z,1.80
2022-08-11T02:14:27.505Z,2.40
2022-08-11T02:17:01.424Z,1.90
2022-08-11T02:20:05.880Z,2.30
2022-08-11T02:23:00.608Z,2.20
2022-08-11T02:25:28.051Z,2.80
2022-08-11T02:28:28.896Z,2.13
2022-08-11T02:32:23.930Z,2.10
2022-08-11T02:34:39.251Z,2.50
2022-08-11T02:37:25.367Z,2.27
2022-08-11T02:39:58.923Z,2.47
2022-08-11T02:42:45.636Z,2.60
2022-08-11T02:45:13.188Z,2.77
2022-08-11T02:47:40.520Z,2.50
2022-08-11T02:50:26.394Z,2.10
2022-08-11T02:52:59.842Z,2.70
2022-08-11T02:55:56.191Z,2.67
2022-08-11T02:58:26.938Z,2.43
2022-08-11T03:00:57.763Z,2.60
2022-08-11T03:03:31.180Z,2.53
2022-08-11T03:05:58.656Z,2.50
2022-08-11T03:08:29.024Z,2.30
2022-08-11T03:11:24.326Z,2.70
2022-08-11T03:14:27.177Z,2.60
2022-08-11T03:17:06.592Z,2.13
2022-08-11T03:19:53.068Z,2.33
2022-08-11T03:22:23.835Z,2.43
2022-08-11T03:25:09.835Z,2.70
2022-08-11T03:27:45.862Z,2.97
2022-08-11T03:30:26.766Z,2.30
2022-08-11T03:33:27.911Z,2.50
2022-08-11T03:36:07.077Z,2.73
2022-08-11T03:39:03.905Z,2.37
2022-08-11T03:42:04.072Z,2.63
2022-08-11T03:44:50.974Z,2.40
2022-08-11T03:47:34.553Z,3.07
2022-08-11T03:50:04.656Z,2.70
2022-08-11T03:52:41.155Z,2.60
2022-08-11T03:55:32.317Z,3.10
2022-08-11T03:58:18.365Z,2.93
2022-08-11T04:01:04.093Z,2.87
2022-08-11T04:03:34.826Z,2.57
2022-08-11T04:06:28.660Z,2.77
2022-08-11T04:09:04.982Z,2.80
2022-08-11T04:11:41.486Z,2.63
2022-08-11T04:14:30.528Z,2.93
2022-08-11T04:17:09.605Z,2.70
2022-08-11T04:19:55.649Z,2.73
2022-08-11T04:22:38.420Z,2.80
2022-08-11T04:25:24.823Z,2.80
2022-08-11T04:28:28.619Z,3.00
2022-08-11T04:31:52.084Z,3.00
2022-08-11T04:34:32.242Z,2.63
2022-08-11T04:37:30.931Z,3.20
2022-08-11T04:40:13.352Z,2.80
2022-08-11T04:43:08.446Z,3.07
2022-08-11T04:45:55.987Z,3.03
2022-08-11T04:48:49.192Z,2.90
2022-08-11T04:52:04.361Z,2.80
2022-08-11T04:54:50.330Z,2.93
2022-08-11T04:57:48.267Z,3.10
2022-08-11T05:00:37.528Z,3.50
2022-08-11T05:03:04.849Z,2.80
2022-08-11T05:05:32.177Z,3.20
2022-08-11T05:07:59.449Z,2.77
2022-08-11T05:10:46.349Z,3.20
2022-08-11T05:13:41.907Z,3.27
2022-08-11T05:16:32.197Z,3.17
2022-08-11T05:19:18.483Z,3.20
2022-08-11T05:22:07.782Z,2.60
2022-08-11T05:25:03.598Z,2.67
2022-08-11T05:27:52.190Z,3.03
2022-08-11T05:30:38.397Z,2.90
2022-08-11T05:33:32.190Z,3.03
2022-08-11T05:36:09.555Z,3.07
2022-08-11T05:38:56.411Z,3.10
2022-08-11T05:41:43.944Z,3.28
2022-08-11T05:44:31.116Z,3.30
2022-08-11T05:47:17.694Z,2.83
2022-08-11T05:50:09.369Z,2.60
2022-08-11T05:53:04.633Z,2.38
2022-08-11T05:56:02.108Z,2.53
2022-08-11T05:58:41.785Z,2.80
2022-08-11T06:01:10.369Z,3.00
2022-08-11T06:03:58.902Z,2.35
2022-08-11T06:06:27.898Z,2.90
2022-08-11T06:08:59.084Z,2.38
2022-08-11T06:11:43.198Z,2.60
2022-08-11T06:14:15.797Z,2.65
2022-08-11T06:16:43.866Z,2.65
2022-08-11T06:19:11.282Z,2.67
2022-08-11T06:21:38.715Z,3.00
2022-08-11T06:24:13.480Z,2.95
2022-08-11T06:27:10.681Z,3.00
2022-08-11T06:29:47.814Z,2.92
2022-08-11T06:32:16.476Z,2.90
2022-08-11T06:34:59.745Z,2.70
2022-08-11T06:37:27.129Z,3.08
2022-08-11T06:40:13.391Z,2.50
2022-08-11T06:43:02.432Z,2.67
2022-08-11T06:45:49.582Z,2.95
2022-08-11T06:48:18.414Z,2.78
2022-08-11T06:51:12.067Z,3.20
2022-08-11T06:53:42.203Z,2.60
2022-08-11T06:57:01.711Z,2.72
2022-08-11T06:59:57.091Z,2.70
2022-08-11T07:02:36.120Z,2.92
2022-08-11T07:05:08.501Z,2.80
2022-08-11T07:08:34.157Z,2.90
2022-08-11T07:11:30.708Z,2.80
2022-08-11T07:14:20.691Z,2.63
2022-08-11T07:16:49.263Z,2.78
2022-08-11T07:19:39.054Z,2.90
2022-08-11T07:22:26.042Z,2.50
2022-08-11T07:25:20.867Z,2.60
2022-08-11T07:28:15.789Z,2.65
2022-08-11T07:30:43.839Z,2.50
2022-08-11T07:34:05.821Z,2.50
2022-08-11T07:36:01.352Z,2.70
2022-08-11T07:38:47.405Z,2.60
2022-08-11T07:41:16.028Z,2.70
2022-08-11T07:43:44.585Z,2.60
2022-08-11T07:46:30.779Z,3.20
2022-08-11T07:49:19.555Z,2.67
2022-08-11T07:52:07.430Z,2.70
2022-08-11T07:54:36.060Z,2.72
2022-08-11T07:57:42.978Z,2.60
2022-08-11T08:00:30.027Z,2.00
2022-08-11T08:03:18.308Z,2.40
2022-08-11T08:06:05.488Z,2.20
2022-08-11T08:09:01.888Z,2.47
2022-08-11T08:11:48.059Z,2.42
2022-08-11T08:14:34.505Z,2.33
2022-08-11T08:17:21.021Z,2.00
2022-08-11T08:19:49.446Z,2.20
2022-08-11T08:22:37.473Z,2.25
2022-08-11T08:25:05.359Z,2.10
2022-08-11T08:27:33.413Z,2.05
2022-08-11T08:30:19.797Z,2.30
2022-08-11T08:32:47.233Z,2.10
2022-08-11T08:35:15.571Z,1.85
2022-08-11T08:37:45.837Z,1.90
2022-08-11T08:40:14.948Z,2.05
2022-08-11T08:42:51.680Z,2.08
2022-08-11T08:45:19.299Z,2.10
2022-08-11T08:47:52.962Z,1.90
2022-08-11T08:50:27.876Z,2.00
2022-08-11T08:53:05.312Z,2.00
2022-08-11T08:55:33.778Z,1.80
2022-08-11T08:58:01.850Z,2.20
2022-08-11T09:00:39.698Z,1.90
2022-08-11T09:03:36.035Z,1.60
2022-08-11T09:05:58.525Z,1.73
2022-08-11T09:08:31.596Z,1.95
2022-08-11T09:11:18.149Z,1.88
2022-08-11T09:14:03.173Z,1.60
2022-08-11T09:16:34.655Z,2.70
2022-08-11T09:19:02.504Z,4.20
2022-08-11T09:21:39.775Z,2.88
2022-08-11T09:24:35.402Z,2.58
2022-08-11T09:27:06.076Z,2.20
2022-08-11T09:29:34.169Z,1.60
2022-08-11T09:32:01.876Z,1.90
2022-08-11T09:34:29.512Z,1.70
2022-08-11T09:37:28.509Z,1.90
2022-08-11T09:40:27.510Z,1.80
2022-08-11T09:43:14.241Z,2.20
2022-08-11T09:45:41.776Z,1.65
2022-08-11T09:48:09.356Z,2.22
2022-08-11T09:50:40.276Z,1.83
2022-08-11T09:53:34.759Z,1.70
2022-08-11T09:55:55.394Z,1.95
2022-08-11T09:58:41.932Z,2.05
2022-08-11T10:01:27.288Z,2.13
2022-08-11T10:04:01.552Z,2.00
2022-08-11T10:06:48.252Z,2.90
2022-08-11T10:09:22.294Z,2.20
2022-08-11T10:11:55.512Z,1.88
2022-08-11T10:14:44.957Z,1.73
2022-08-11T10:17:14.203Z,1.52
2022-08-11T10:19:43.053Z,1.77
2022-08-11T10:22:32.882Z,1.60
2022-08-11T10:25:20.291Z,2.40
2022-08-11T10:28:30.521Z,2.30
2022-08-11T10:31:13.621Z,1.95
2022-08-11T10:34:00.318Z,1.77
2022-08-11T10:36:29.060Z,2.00
2022-08-11T10:38:57.543Z,1.83
2022-08-11T10:42:06.679Z,2.13
2022-08-11T10:44:38.273Z,2.10
2022-08-11T10:47:24.782Z,2.00
2022-08-11T10:50:11.899Z,1.90
2022-08-11T10:52:58.847Z,2.00
2022-08-11T10:55:45.176Z,1.73
2022-08-11T10:58:31.870Z,2.08
2022-08-11T11:01:00.661Z,2.10
2022-08-11T11:03:29.988Z,2.00
2022-08-11T11:06:28.757Z,2.10
2022-08-11T11:08:53.071Z,2.17
2022-08-11T11:11:22.102Z,2.05
2022-08-11T11:14:12.176Z,2.10
2022-08-11T11:16:50.348Z,1.77
2022-08-11T11:19:20.809Z,2.10
2022-08-11T11:21:50.251Z,2.20
2022-08-11T11:24:34.256Z,1.80
2022-08-11T11:27:03.910Z,1.98
2022-08-11T11:29:50.781Z,2.03
2022-08-11T11:32:19.652Z,1.70
2022-08-11T11:34:47.915Z,2.13
2022-08-11T11:37:21.810Z,1.90
2022-08-11T11:39:49.373Z,1.95
2022-08-11T11:42:17.582Z,2.03
2022-08-11T11:44:46.431Z,1.63
2022-08-11T11:47:14.358Z,1.85
2022-08-11T11:49:44.063Z,1.80
2022-08-11T11:52:18.187Z,1.83
2022-08-11T11:54:46.610Z,2.83
2022-08-11T11:57:34.094Z,2.22
2022-08-11T12:00:20.127Z,2.10
2022-08-11T12:02:47.791Z,1.90
2022-08-11T12:05:15.601Z,1.75
2022-08-11T12:08:10.426Z,1.85
2022-08-11T12:11:11.375Z,1.80
2022-08-11T12:13:58.587Z,1.83
2022-08-11T12:16:34.259Z,1.70
2022-08-11T12:19:04.678Z,1.70
2022-08-11T12:21:32.223Z,1.77
2022-08-11T12:24:20.078Z,1.90
2022-08-11T12:27:16.626Z,1.92
2022-08-11T12:29:47.432Z,1.70
2022-08-11T12:32:18.601Z,1.88
2022-08-11T12:34:45.944Z,1.83
2022-08-11T12:37:14.660Z,2.00
2022-08-11T12:40:15.645Z,2.30
2022-08-11T12:43:21.039Z,2.28
2022-08-11T12:45:51.994Z,1.92
2022-08-11T12:48:57.810Z,2.10
2022-08-11T12:52:12.034Z,1.90
2022-08-11T12:54:39.256Z,2.00
2022-08-11T12:57:37.867Z,2.20
2022-08-11T13:00:28.123Z,2.10
2022-08-11T13:03:14.719Z,2.00
2022-08-11T13:05:45.099Z,2.13
2022-08-11T13:08:15.159Z,2.08
2022-08-11T13:11:01.970Z,1.90
2022-08-11T13:13:52.730Z,1.98
2022-08-11T13:16:17.888Z,2.03
2022-08-11T13:18:45.495Z,2.00
2022-08-11T13:21:20.547Z,2.05
2022-08-11T13:24:01.087Z,2.20
2022-08-11T13:26:48.042Z,1.88
2022-08-11T13:29:24.737Z,2.13
2022-08-11T13:31:56.317Z,2.00
2022-08-11T13:34:24.874Z,1.80
2022-08-11T13:36:53.016Z,2.15
2022-08-11T13:39:21.218Z,2.03
2022-08-11T13:41:51.911Z,2.05
2022-08-11T13:44:25.258Z,2.05
2022-08-11T13:46:54.133Z,2.00
2022-08-11T13:49:22.160Z,1.67
2022-08-11T13:51:50.022Z,2.00
2022-08-11T13:54:21.689Z,1.65
2022-08-11T13:56:52.433Z,1.88
2022-08-11T13:59:22.997Z,2.10
2022-08-11T14:02:22.864Z,1.85
2022-08-11T14:04:43.942Z,2.20
2022-08-11T14:07:12.484Z,2.58
2022-08-11T14:09:41.308Z,2.40
2022-08-11T14:12:29.676Z,2.05
2022-08-11T14:15:05.797Z,2.33
2022-08-11T14:17:49.024Z,2.00
2022-08-11T14:20:40.051Z,2.03
2022-08-11T14:23:05.795Z,2.10
2022-08-11T14:26:01.082Z,2.00
2022-08-11T14:28:31.742Z,2.00
2022-08-11T14:31:05.411Z,1.90
2022-08-11T14:33:58.257Z,1.70
2022-08-11T14:36:22.499Z,1.90
2022-08-11T14:38:50.558Z,1.80
2022-08-11T14:41:37.380Z,2.08
2022-08-11T14:44:44.157Z,2.10
2022-08-11T14:47:23.727Z,2.00
2022-08-11T14:50:10.011Z,2.10
2022-08-11T14:52:39.980Z,1.80
2022-08-11T14:55:27.174Z,2.10
2022-08-11T14:57:57.007Z,1.92
2022-08-11T15:00:25.139Z,1.70
2022-08-11T15:03:11.723Z,1.52
2022-08-11T15:05:41.494Z,1.77
2022-08-11T15:08:10.043Z,1.90
2022-08-11T15:10:37.598Z,1.70
2022-08-11T15:13:05.996Z,1.70
2022-08-11T15:15:53.160Z,1.83
2022-08-11T15:18:24.094Z,1.77
2022-08-11T15:21:10.217Z,1.67
2022-08-11T15:23:58.339Z,2.00
2022-08-11T15:26:52.615Z,1.88
2022-08-11T15:29:40.086Z,2.80
2022-08-11T15:32:22.352Z,2.70
2022-08-11T15:35:18.461Z,1.80
2022-08-11T15:37:46.885Z,1.80
2022-08-11T15:40:37.219Z,1.55
2022-08-11T15:43:28.478Z,1.65
2022-08-11T15:46:02.257Z,1.60
2022-08-11T15:48:52.864Z,1.88
2022-08-11T15:51:34.037Z,2.08
2022-08-11T15:54:08.930Z,1.60
2022-08-11T15:56:39.054Z,2.00
2022-08-11T15:59:41.682Z,1.90
2022-08-11T16:02:31.282Z,1.80
2022-08-11T16:05:02.080Z,1.63
2022-08-11T16:07:31.957Z,1.83
2022-08-11T16:10:09.708Z,1.70
2022-08-11T16:12:40.239Z,1.52
2022-08-11T16:15:27.453Z,1.60
2022-08-11T16:17:59.962Z,1.80
2022-08-11T16:20:28.747Z,1.70
2022-08-11T16:23:02.034Z,2.00
2022-08-11T16:27:03.406Z,1.92
2022-08-11T16:28:20.844Z,1.60
2022-08-11T16:30:49.530Z,1.67
2022-08-11T16:33:49.204Z,1.60
2022-08-11T16:36:25.064Z,1.80
2022-08-11T16:38:53.946Z,1.60
2022-08-11T16:41:42.088Z,1.63
2022-08-11T16:44:32.833Z,1.88
2022-08-11T16:47:07.032Z,1.80
2022-08-11T16:49:37.202Z,1.73
2022-08-11T16:52:05.681Z,1.67
2022-08-11T16:54:34.481Z,1.92
2022-08-11T16:57:23.953Z,1.90
2022-08-11T16:59:57.435Z,1.80
2022-08-11T17:02:47.736Z,1.73
2022-08-11T17:05:38.457Z,1.63
2022-08-11T17:08:49.872Z,1.80
2022-08-11T17:11:45.447Z,1.80
2022-08-11T17:14:15.851Z,1.95
2022-08-11T17:16:44.026Z,1.80
2022-08-11T17:19:13.662Z,1.80
2022-08-11T17:22:06.326Z,1.67
2022-08-11T17:24:35.573Z,1.63
2022-08-11T17:27:07.704Z,1.70
2022-08-11T17:29:54.779Z,1.50
2022-08-11T17:32:56.446Z,1.77
2022-08-11T17:35:31.214Z,1.85
2022-08-11T17:37:58.472Z,1.42
2022-08-11T17:40:26.166Z,1.85
2022-08-11T17:43:13.326Z,1.58
2022-08-11T17:46:00.148Z,1.60
2022-08-11T17:48:32.564Z,1.60
2022-08-11T17:51:05.479Z,1.60
2022-08-11T17:54:02.189Z,1.58
2022-08-11T17:57:02.825Z,1.90
2022-08-11T17:59:49.478Z,1.77
2022-08-11T18:02:35.923Z,1.63
2022-08-11T18:05:12.274Z,1.60
2022-08-11T18:08:00.136Z,1.63
2022-08-11T18:10:47.667Z,1.60
2022-08-11T18:13:34.098Z,1.75
2022-08-11T18:16:20.255Z,1.75
2022-08-11T18:19:06.452Z,1.60
2022-08-11T18:22:13.105Z,1.95
2022-08-11T18:25:03.710Z,2.00
2022-08-11T18:27:51.012Z,1.73
2022-08-11T18:30:37.268Z,1.90
2022-08-11T18:33:50.613Z,1.80
2022-08-11T18:36:35.171Z,1.65
2022-08-11T18:39:22.405Z,1.65
2022-08-11T18:42:08.894Z,1.67
2022-08-11T18:44:56.630Z,1.70
2022-08-11T18:47:42.936Z,1.80
2022-08-11T18:50:38.741Z,2.05
2022-08-11T18:53:26.318Z,1.75
2022-08-11T18:56:12.989Z,1.50
2022-08-11T18:59:01.438Z,1.80
2022-08-11T19:01:52.404Z,1.50
2022-08-11T19:04:39.535Z,1.63
2022-08-11T19:07:27.270Z,1.67
2022-08-11T19:10:14.137Z,1.73
2022-08-11T19:13:01.757Z,2.03
2022-08-11T19:15:48.623Z,1.88
2022-08-11T19:18:40.649Z,2.03
2022-08-11T19:21:27.464Z,1.92
2022-08-11T19:24:16.331Z,2.10
2022-08-11T19:27:03.297Z,2.17
2022-08-11T19:30:07.317Z,2.38
2022-08-11T19:32:57.196Z,2.00
2022-08-11T19:35:44.108Z,2.33
2022-08-11T19:38:30.916Z,1.80
2022-08-11T19:41:18.462Z,1.70
2022-08-11T19:44:24.776Z,2.10
2022-08-11T19:47:11.702Z,2.13
2022-08-11T19:49:59.370Z,1.95
2022-08-11T19:52:45.583Z,2.00
2022-08-11T19:55:32.204Z,1.98
2022-08-11T19:58:18.507Z,2.38
2022-08-11T20:01:04.670Z,2.13
2022-08-11T20:03:51.098Z,2.00
2022-08-11T20:06:37.303Z,1.90
2022-08-11T20:09:24.401Z,1.70
2022-08-11T20:12:12.855Z,1.55
2022-08-11T20:14:59.997Z,1.90
2022-08-11T20:17:47.285Z,2.10
2022-08-11T20:20:33.834Z,1.98
2022-08-11T20:23:23.235Z,2.10
2022-08-11T20:26:29.665Z,1.70
2022-08-11T20:29:17.040Z,1.70
2022-08-11T20:32:04.344Z,1.90
2022-08-11T20:34:56.201Z,1.90
2022-08-11T20:37:43.312Z,1.67
2022-08-11T20:40:30.532Z,2.13
2022-08-11T20:44:05.662Z,2.05
2022-08-11T20:46:24.706Z,1.92
2022-08-11T20:49:11.839Z,1.70
2022-08-11T20:51:58.718Z,1.90
2022-08-11T20:54:45.941Z,1.77
2022-08-11T20:57:59.129Z,2.00
2022-08-11T21:00:43.884Z,1.83
2022-08-11T21:03:36.044Z,2.13
2022-08-11T21:06:31.286Z,1.80
2022-08-11T21:09:19.943Z,1.80
2022-08-11T21:12:07.265Z,1.90
2022-08-11T21:15:00.432Z,2.08
2022-08-11T21:18:00.575Z,2.05
2022-08-11T21:20:54.215Z,2.25
2022-08-11T21:23:42.738Z,2.22
2022-08-11T21:26:30.596Z,2.42
2022-08-11T21:29:17.699Z,2.20
2022-08-11T21:32:04.501Z,2.53
2022-08-11T21:34:50.833Z,2.00
2022-08-11T21:37:37.512Z,2.20
2022-08-11T21:40:25.302Z,2.00
2022-08-11T21:43:13.003Z,2.03
2022-08-11T21:45:59.440Z,1.95
2022-08-11T21:48:46.656Z,1.95
2022-08-11T21:51:32.884Z,2.25
2022-08-11T21:54:19.648Z,2.03
2022-08-11T21:57:06.442Z,2.15
2022-08-11T22:00:01.279Z,2.45
2022-08-11T22:02:49.064Z,2.20
2022-08-11T22:05:40.434Z,1.90
2022-08-11T22:08:27.344Z,2.25
2022-08-11T22:11:14.217Z,1.95
2022-08-11T22:14:05.671Z,2.20
2022-08-11T22:16:54.562Z,2.17
2022-08-11T22:19:42.216Z,2.60
2022-08-11T22:22:30.288Z,2.00
2022-08-11T22:25:18.492Z,2.00
2022-08-11T22:28:05.039Z,2.40
2022-08-11T22:30:51.819Z,2.47
2022-08-11T22:33:39.686Z,2.30
2022-08-11T22:36:45.623Z,2.07
2022-08-11T22:39:32.033Z,2.30
2022-08-11T22:42:24.047Z,2.17
2022-08-11T22:45:19.352Z,2.20
2022-08-11T22:48:07.354Z,2.10
2022-08-11T22:50:53.417Z,2.00
2022-08-11T22:53:58.338Z,1.92
2022-08-11T22:56:46.115Z,1.88
2022-08-11T22:59:32.311Z,1.83
2022-08-11T23:02:18.231Z,2.28
2022-08-11T23:05:04.351Z,2.17
2022-08-11T23:07:52.073Z,2.40
2022-08-11T23:10:39.629Z,2.30
2022-08-11T23:13:26.955Z,2.25
2022-08-11T23:16:16.201Z,2.30
2022-08-11T23:19:02.332Z,2.00
2022-08-11T23:21:49.100Z,2.10
2022-08-11T23:24:36.498Z,1.73
2022-08-11T23:27:23.414Z,2.10
2022-08-11T23:30:10.285Z,1.57
2022-08-11T23:32:56.885Z,1.73
2022-08-11T23:35:54.003Z,2.00
2022-08-11T23:38:44.220Z,3.07
2022-08-11T23:41:30.165Z,1.90
2022-08-11T23:44:16.439Z,1.80
2022-08-11T23:47:03.527Z,1.63
2022-08-11T23:49:49.693Z,1.93
2022-08-11T23:52:36.325Z,1.90
2022-08-11T23:55:22.822Z,1.83
2022-08-11T23:58:09.386Z,1.90
